sensor_id;sensor_type;location;lat;lon;timestamp;temperature;humidity
2603;DHT22;1311;47.966;7.958;2022-11-20T00:01:26;6.90;99.90
2603;DHT22;1311;47.966;7.958;2022-11-20T00:03:53;7.00;99.90
2603;DHT22;1311;47.966;7.958;2022-11-20T00:06:22;7.00;99.90
2603;DHT22;1311;47.966;7.958;2022-11-20T00:08:48;6.90;99.90
2603;DHT22;1311;47.966;7.958;2022-11-20T00:11:15;6.90;99.90
2603;DHT22;1311;47.966;7.958;2022-11-20T00:13:42;6.80;99.90
2603;DHT22;1311;47.966;7.958;2022-11-20T00:16:10;6.70;99.90
2603;DHT22;1311;47.966;7.958;2022-11-20T00:18:37;6.80;99.90
2603;DHT22;1311;47.966;7.958;2022-11-20T00:21:04;6.70;99.90
2603;DHT22;1311;47.966;7.958;2022-11-20T00:23:32;6.70;99.90
2603;DHT22;1311;47.966;7.958;2022-11-20T00:26:01;6.70;99.90
2603;DHT22;1311;47.966;7.958;2022-11-20T00:28:28;6.80;99.90
2603;DHT22;1311;47.966;7.958;2022-11-20T00:30:59;6.80;99.90
2603;DHT22;1311;47.966;7.958;2022-11-20T00:33:26;6.70;99.90
2603;DHT22;1311;47.966;7.958;2022-11-20T00:35:53;6.90;99.90
2603;DHT22;1311;47.966;7.958;2022-11-20T00:38:25;6.80;99.90
2603;DHT22;1311;47.966;7.958;2022-11-20T00:40:55;6.80;99.90
2603;DHT22;1311;47.966;7.958;2022-11-20T00:43:22;6.80;99.90
2603;DHT22;1311;47.966;7.958;2022-11-20T00:45:48;6.80;99.90
2603;DHT22;1311;47.966;7.958;2022-11-20T00:48:15;6.70;99.90
2603;DHT22;1311;47.966;7.958;2022-11-20T00:50:41;6.80;99.90
2603;DHT22;1311;47.966;7.958;2022-11-20T00:53:08;6.70;99.90
2603;DHT22;1311;47.966;7.958;2022-11-20T00:55:35;6.80;99.90
2603;DHT22;1311;47.966;7.958;2022-11-20T00:58:03;6.80;99.90
2603;DHT22;1311;47.966;7.958;2022-11-20T01:00:29;6.70;99.90
2603;DHT22;1311;47.966;7.958;2022-11-20T01:02:56;6.80;99.90
2603;DHT22;1311;47.966;7.958;2022-11-20T01:05:22;6.80;99.90
2603;DHT22;1311;47.966;7.958;2022-11-20T01:07:49;6.70;99.90
2603;DHT22;1311;47.966;7.958;2022-11-20T01:10:16;6.90;99.90
2603;DHT22;1311;47.966;7.958;2022-11-20T01:12:43;6.90;99.90
2603;DHT22;1311;47.966;7.958;2022-11-20T01:15:31;6.80;99.90
2603;DHT22;1311;47.966;7.958;2022-11-20T01:17:59;6.80;99.90
2603;DHT22;1311;47.966;7.958;2022-11-20T01:20:26;6.80;99.90
2603;DHT22;1311;47.966;7.958;2022-11-20T01:22:52;6.80;99.90
2603;DHT22;1311;47.966;7.958;2022-11-20T01:25:19;6.80;99.90
2603;DHT22;1311;47.966;7.958;2022-11-20T01:27:46;6.70;99.90
2603;DHT22;1311;47.966;7.958;2022-11-20T01:30:12;6.80;99.90
2603;DHT22;1311;47.966;7.958;2022-11-20T01:32:40;6.80;99.90
2603;DHT22;1311;47.966;7.958;2022-11-20T01:35:07;6.80;99.90
2603;DHT22;1311;47.966;7.958;2022-11-20T01:37:34;6.80;99.90
2603;DHT22;1311;47.966;7.958;2022-11-20T01:40:01;6.70;99.90
2603;DHT22;1311;47.966;7.958;2022-11-20T01:42:28;6.70;99.90
2603;DHT22;1311;47.966;7.958;2022-11-20T01:47:59;6.80;99.90
2603;DHT22;1311;47.966;7.958;2022-11-20T01:50:26;6.80;99.90
2603;DHT22;1311;47.966;7.958;2022-11-20T01:52:54;6.80;99.90
2603;DHT22;1311;47.966;7.958;2022-11-20T01:55:23;6.70;99.90
2603;DHT22;1311;47.966;7.958;2022-11-20T01:57:52;6.80;99.90
2603;DHT22;1311;47.966;7.958;2022-11-20T02:00:19;6.70;99.90
2603;DHT22;1311;47.966;7.958;2022-11-20T02:02:48;6.80;99.90
2603;DHT22;1311;47.966;7.958;2022-11-20T02:05:18;6.80;99.90
2603;DHT22;1311;47.966;7.958;2022-11-20T02:07:46;6.80;99.90
2603;DHT22;1311;47.966;7.958;2022-11-20T02:10:13;6.80;99.90
2603;DHT22;1311;47.966;7.958;2022-11-20T02:12:40;6.80;99.90
2603;DHT22;1311;47.966;7.958;2022-11-20T02:15:24;6.70;99.90
2603;DHT22;1311;47.966;7.958;2022-11-20T02:17:51;6.80;99.90
2603;DHT22;1311;47.966;7.958;2022-11-20T02:20:19;6.80;99.90
2603;DHT22;1311;47.966;7.958;2022-11-20T02:22:47;6.70;99.90
2603;DHT22;1311;47.966;7.958;2022-11-20T02:25:17;6.60;99.90
2603;DHT22;1311;47.966;7.958;2022-11-20T02:27:43;6.80;99.90
2603;DHT22;1311;47.966;7.958;2022-11-20T02:30:10;6.80;99.90
2603;DHT22;1311;47.966;7.958;2022-11-20T02:32:38;6.70;99.90
2603;DHT22;1311;47.966;7.958;2022-11-20T02:35:08;6.70;99.90
2603;DHT22;1311;47.966;7.958;2022-11-20T02:37:35;6.80;99.90
2603;DHT22;1311;47.966;7.958;2022-11-20T02:40:03;6.60;99.90
2603;DHT22;1311;47.966;7.958;2022-11-20T02:42:32;6.80;99.90
2603;DHT22;1311;47.966;7.958;2022-11-20T02:44:58;6.80;99.90
2603;DHT22;1311;47.966;7.958;2022-11-20T02:47:25;6.70;99.90
2603;DHT22;1311;47.966;7.958;2022-11-20T02:49:51;6.90;99.90
2603;DHT22;1311;47.966;7.958;2022-11-20T02:52:18;6.80;99.90
2603;DHT22;1311;47.966;7.958;2022-11-20T02:54:45;6.90;99.90
2603;DHT22;1311;47.966;7.958;2022-11-20T02:57:11;6.80;99.90
2603;DHT22;1311;47.966;7.958;2022-11-20T02:59:39;6.90;99.90
2603;DHT22;1311;47.966;7.958;2022-11-20T03:02:06;6.80;99.90
2603;DHT22;1311;47.966;7.958;2022-11-20T03:04:33;6.70;99.90
2603;DHT22;1311;47.966;7.958;2022-11-20T03:06:59;6.80;99.90
2603;DHT22;1311;47.966;7.958;2022-11-20T03:09:26;6.70;99.90
2603;DHT22;1311;47.966;7.958;2022-11-20T03:11:52;6.80;99.90
2603;DHT22;1311;47.966;7.958;2022-11-20T03:14:19;6.80;99.90
2603;DHT22;1311;47.966;7.958;2022-11-20T03:16:47;6.70;99.90
2603;DHT22;1311;47.966;7.958;2022-11-20T03:19:14;6.80;99.90
2603;DHT22;1311;47.966;7.958;2022-11-20T03:21:40;6.90;99.90
2603;DHT22;1311;47.966;7.958;2022-11-20T03:24:07;6.90;99.90
2603;DHT22;1311;47.966;7.958;2022-11-20T03:26:33;6.70;99.90
2603;DHT22;1311;47.966;7.958;2022-11-20T03:29:01;6.70;99.90
2603;DHT22;1311;47.966;7.958;2022-11-20T03:31:28;6.60;99.90
2603;DHT22;1311;47.966;7.958;2022-11-20T03:33:57;6.50;99.90
2603;DHT22;1311;47.966;7.958;2022-11-20T03:36:24;6.70;99.90
2603;DHT22;1311;47.966;7.958;2022-11-20T03:38:52;6.70;99.90
2603;DHT22;1311;47.966;7.958;2022-11-20T03:41:19;6.70;99.90
2603;DHT22;1311;47.966;7.958;2022-11-20T03:43:47;6.70;99.90
2603;DHT22;1311;47.966;7.958;2022-11-20T03:46:13;6.80;99.90
2603;DHT22;1311;47.966;7.958;2022-11-20T03:48:40;6.90;99.90
2603;DHT22;1311;47.966;7.958;2022-11-20T03:51:09;6.90;99.90
2603;DHT22;1311;47.966;7.958;2022-11-20T03:53:36;6.90;99.90
2603;DHT22;1311;47.966;7.958;2022-11-20T03:56:02;7.10;99.90
2603;DHT22;1311;47.966;7.958;2022-11-20T03:58:29;7.10;99.90
2603;DHT22;1311;47.966;7.958;2022-11-20T04:00:56;7.40;99.90
2603;DHT22;1311;47.966;7.958;2022-11-20T04:03:23;7.60;99.90
2603;DHT22;1311;47.966;7.958;2022-11-20T04:05:49;7.40;99.90
2603;DHT22;1311;47.966;7.958;2022-11-20T04:08:17;7.40;99.90
2603;DHT22;1311;47.966;7.958;2022-11-20T04:10:44;7.40;99.90
2603;DHT22;1311;47.966;7.958;2022-11-20T04:13:11;7.30;99.90
2603;DHT22;1311;47.966;7.958;2022-11-20T04:15:37;7.30;99.90
2603;DHT22;1311;47.966;7.958;2022-11-20T04:18:04;7.40;99.90
2603;DHT22;1311;47.966;7.958;2022-11-20T04:20:31;7.70;99.90
2603;DHT22;1311;47.966;7.958;2022-11-20T04:22:57;7.60;99.90
2603;DHT22;1311;47.966;7.958;2022-11-20T04:25:25;7.60;99.90
2603;DHT22;1311;47.966;7.958;2022-11-20T04:27:52;7.60;99.90
2603;DHT22;1311;47.966;7.958;2022-11-20T04:30:18;7.60;99.90
2603;DHT22;1311;47.966;7.958;2022-11-20T04:32:45;7.50;99.90
2603;DHT22;1311;47.966;7.958;2022-11-20T04:35:11;7.90;99.90
2603;DHT22;1311;47.966;7.958;2022-11-20T04:37:38;7.90;99.90
2603;DHT22;1311;47.966;7.958;2022-11-20T04:40:05;7.80;99.90
2603;DHT22;1311;47.966;7.958;2022-11-20T04:42:33;7.90;99.90
2603;DHT22;1311;47.966;7.958;2022-11-20T04:45:00;8.00;99.90
2603;DHT22;1311;47.966;7.958;2022-11-20T04:47:26;7.80;99.90
2603;DHT22;1311;47.966;7.958;2022-11-20T04:49:53;7.90;99.90
2603;DHT22;1311;47.966;7.958;2022-11-20T04:52:19;7.70;99.90
2603;DHT22;1311;47.966;7.958;2022-11-20T04:54:46;7.70;99.90
2603;DHT22;1311;47.966;7.958;2022-11-20T04:57:13;7.80;99.90
2603;DHT22;1311;47.966;7.958;2022-11-20T04:59:42;7.80;99.90
2603;DHT22;1311;47.966;7.958;2022-11-20T05:02:09;7.70;99.90
2603;DHT22;1311;47.966;7.958;2022-11-20T05:04:35;7.80;99.90
2603;DHT22;1311;47.966;7.958;2022-11-20T05:07:02;7.70;99.90
2603;DHT22;1311;47.966;7.958;2022-11-20T05:09:29;7.50;99.90
2603;DHT22;1311;47.966;7.958;2022-11-20T05:11:56;7.60;99.90
2603;DHT22;1311;47.966;7.958;2022-11-20T05:14:22;7.60;99.90
2603;DHT22;1311;47.966;7.958;2022-11-20T05:16:50;7.60;99.90
2603;DHT22;1311;47.966;7.958;2022-11-20T05:19:17;7.70;99.90
2603;DHT22;1311;47.966;7.958;2022-11-20T05:21:44;7.80;99.90
2603;DHT22;1311;47.966;7.958;2022-11-20T05:24:10;7.80;99.90
2603;DHT22;1311;47.966;7.958;2022-11-20T05:26:37;7.90;99.90
2603;DHT22;1311;47.966;7.958;2022-11-20T05:29:04;7.80;99.90
2603;DHT22;1311;47.966;7.958;2022-11-20T05:31:30;7.70;99.90
2603;DHT22;1311;47.966;7.958;2022-11-20T05:33:58;7.80;99.90
2603;DHT22;1311;47.966;7.958;2022-11-20T05:36:25;7.80;99.90
2603;DHT22;1311;47.966;7.958;2022-11-20T05:38:51;7.80;99.90
2603;DHT22;1311;47.966;7.958;2022-11-20T05:41:19;7.70;99.90
2603;DHT22;1311;47.966;7.958;2022-11-20T05:43:46;7.80;99.90
2603;DHT22;1311;47.966;7.958;2022-11-20T05:46:14;8.00;99.90
2603;DHT22;1311;47.966;7.958;2022-11-20T05:48:41;7.90;99.90
2603;DHT22;1311;47.966;7.958;2022-11-20T05:51:10;7.90;99.90
2603;DHT22;1311;47.966;7.958;2022-11-20T05:53:37;7.90;99.90
2603;DHT22;1311;47.966;7.958;2022-11-20T05:56:06;8.00;99.90
2603;DHT22;1311;47.966;7.958;2022-11-20T05:58:33;8.00;99.90
2603;DHT22;1311;47.966;7.958;2022-11-20T06:01:03;8.10;99.90
2603;DHT22;1311;47.966;7.958;2022-11-20T06:03:30;7.90;99.90
2603;DHT22;1311;47.966;7.958;2022-11-20T06:05:58;8.00;99.90
2603;DHT22;1311;47.966;7.958;2022-11-20T06:08:26;8.10;99.90
2603;DHT22;1311;47.966;7.958;2022-11-20T06:10:52;8.00;99.90
2603;DHT22;1311;47.966;7.958;2022-11-20T06:13:19;8.10;99.90
2603;DHT22;1311;47.966;7.958;2022-11-20T06:15:47;8.00;99.90
2603;DHT22;1311;47.966;7.958;2022-11-20T06:18:14;8.00;99.90
2603;DHT22;1311;47.966;7.958;2022-11-20T06:20:41;8.00;99.90
2603;DHT22;1311;47.966;7.958;2022-11-20T06:23:07;8.10;99.90
2603;DHT22;1311;47.966;7.958;2022-11-20T06:25:38;8.20;99.90
2603;DHT22;1311;47.966;7.958;2022-11-20T06:28:04;8.20;99.90
2603;DHT22;1311;47.966;7.958;2022-11-20T06:30:31;8.20;99.90
2603;DHT22;1311;47.966;7.958;2022-11-20T06:32:58;8.40;99.90
2603;DHT22;1311;47.966;7.958;2022-11-20T06:35:24;8.20;99.90
2603;DHT22;1311;47.966;7.958;2022-11-20T06:37:51;8.20;99.90
2603;DHT22;1311;47.966;7.958;2022-11-20T06:40:17;8.20;99.90
2603;DHT22;1311;47.966;7.958;2022-11-20T06:42:45;8.00;99.90
2603;DHT22;1311;47.966;7.958;2022-11-20T06:45:12;8.00;99.90
2603;DHT22;1311;47.966;7.958;2022-11-20T06:47:39;8.10;99.90
2603;DHT22;1311;47.966;7.958;2022-11-20T06:50:06;8.20;99.90
2603;DHT22;1311;47.966;7.958;2022-11-20T06:52:32;8.20;99.90
2603;DHT22;1311;47.966;7.958;2022-11-20T06:54:59;8.10;99.90
2603;DHT22;1311;47.966;7.958;2022-11-20T06:57:25;8.00;99.90
2603;DHT22;1311;47.966;7.958;2022-11-20T06:59:53;8.10;99.90
2603;DHT22;1311;47.966;7.958;2022-11-20T07:02:20;8.10;99.90
2603;DHT22;1311;47.966;7.958;2022-11-20T07:04:47;8.20;99.90
2603;DHT22;1311;47.966;7.958;2022-11-20T07:07:13;8.10;99.90
2603;DHT22;1311;47.966;7.958;2022-11-20T07:09:40;8.10;99.90
2603;DHT22;1311;47.966;7.958;2022-11-20T07:12:07;8.00;99.90
2603;DHT22;1311;47.966;7.958;2022-11-20T07:14:34;8.00;99.90
2603;DHT22;1311;47.966;7.958;2022-11-20T07:17:03;7.90;99.90
2603;DHT22;1311;47.966;7.958;2022-11-20T07:19:29;8.00;99.90
2603;DHT22;1311;47.966;7.958;2022-11-20T07:21:56;8.10;99.90
2603;DHT22;1311;47.966;7.958;2022-11-20T07:24:22;7.90;99.90
2603;DHT22;1311;47.966;7.958;2022-11-20T07:26:49;8.00;99.90
2603;DHT22;1311;47.966;7.958;2022-11-20T07:29:16;7.90;99.90
2603;DHT22;1311;47.966;7.958;2022-11-20T07:31:42;8.10;99.90
2603;DHT22;1311;47.966;7.958;2022-11-20T07:34:10;8.00;99.90
2603;DHT22;1311;47.966;7.958;2022-11-20T07:36:37;8.10;99.90
2603;DHT22;1311;47.966;7.958;2022-11-20T07:39:04;8.10;99.90
2603;DHT22;1311;47.966;7.958;2022-11-20T07:41:30;8.10;99.90
2603;DHT22;1311;47.966;7.958;2022-11-20T07:43:57;8.10;99.90
2603;DHT22;1311;47.966;7.958;2022-11-20T07:46:23;8.10;99.90
2603;DHT22;1311;47.966;7.958;2022-11-20T07:48:50;8.10;99.90
2603;DHT22;1311;47.966;7.958;2022-11-20T07:51:18;8.20;99.90
2603;DHT22;1311;47.966;7.958;2022-11-20T07:53:45;8.30;99.90
2603;DHT22;1311;47.966;7.958;2022-11-20T07:56:11;8.30;99.90
2603;DHT22;1311;47.966;7.958;2022-11-20T07:58:39;8.30;99.90
2603;DHT22;1311;47.966;7.958;2022-11-20T08:01:06;8.40;99.90
2603;DHT22;1311;47.966;7.958;2022-11-20T08:03:33;8.30;99.90
2603;DHT22;1311;47.966;7.958;2022-11-20T08:05:59;8.40;99.90
2603;DHT22;1311;47.966;7.958;2022-11-20T08:08:28;8.40;99.90
2603;DHT22;1311;47.966;7.958;2022-11-20T08:10:56;8.60;99.90
2603;DHT22;1311;47.966;7.958;2022-11-20T08:13:42;8.50;99.90
2603;DHT22;1311;47.966;7.958;2022-11-20T08:16:26;8.50;99.90
2603;DHT22;1311;47.966;7.958;2022-11-20T08:18:53;8.50;99.90
2603;DHT22;1311;47.966;7.958;2022-11-20T08:21:20;8.30;99.90
2603;DHT22;1311;47.966;7.958;2022-11-20T08:23:48;8.40;99.90
2603;DHT22;1311;47.966;7.958;2022-11-20T08:26:14;8.60;99.90
2603;DHT22;1311;47.966;7.958;2022-11-20T08:28:41;8.50;99.90
2603;DHT22;1311;47.966;7.958;2022-11-20T08:31:08;8.50;99.90
2603;DHT22;1311;47.966;7.958;2022-11-20T08:33:35;8.50;99.90
2603;DHT22;1311;47.966;7.958;2022-11-20T08:36:02;8.50;99.90
2603;DHT22;1311;47.966;7.958;2022-11-20T08:38:30;8.40;99.90
2603;DHT22;1311;47.966;7.958;2022-11-20T08:40:58;8.50;99.90
2603;DHT22;1311;47.966;7.958;2022-11-20T08:43:42;8.50;99.90
2603;DHT22;1311;47.966;7.958;2022-11-20T08:46:09;8.50;99.90
2603;DHT22;1311;47.966;7.958;2022-11-20T08:48:36;8.50;99.90
2603;DHT22;1311;47.966;7.958;2022-11-20T08:51:03;8.50;99.90
2603;DHT22;1311;47.966;7.958;2022-11-20T08:53:29;8.40;99.90
2603;DHT22;1311;47.966;7.958;2022-11-20T08:55:56;8.50;99.90
2603;DHT22;1311;47.966;7.958;2022-11-20T08:58:24;8.70;99.90
2603;DHT22;1311;47.966;7.958;2022-11-20T09:00:51;8.60;99.90
2603;DHT22;1311;47.966;7.958;2022-11-20T09:03:18;8.60;99.90
2603;DHT22;1311;47.966;7.958;2022-11-20T09:05:45;8.70;99.90
2603;DHT22;1311;47.966;7.958;2022-11-20T09:08:11;8.70;99.90
2603;DHT22;1311;47.966;7.958;2022-11-20T09:10:38;8.70;99.90
2603;DHT22;1311;47.966;7.958;2022-11-20T09:13:05;8.80;99.90
2603;DHT22;1311;47.966;7.958;2022-11-20T09:15:34;8.70;99.90
2603;DHT22;1311;47.966;7.958;2022-11-20T09:18:01;8.70;99.90
2603;DHT22;1311;47.966;7.958;2022-11-20T09:20:30;8.70;99.90
2603;DHT22;1311;47.966;7.958;2022-11-20T09:22:56;8.70;99.90
2603;DHT22;1311;47.966;7.958;2022-11-20T09:25:23;8.70;99.90
2603;DHT22;1311;47.966;7.958;2022-11-20T09:27:54;8.70;99.90
2603;DHT22;1311;47.966;7.958;2022-11-20T09:30:21;8.60;99.90
2603;DHT22;1311;47.966;7.958;2022-11-20T09:32:49;8.70;99.90
2603;DHT22;1311;47.966;7.958;2022-11-20T09:35:16;8.80;99.90
2603;DHT22;1311;47.966;7.958;2022-11-20T09:37:43;8.60;99.90
2603;DHT22;1311;47.966;7.958;2022-11-20T09:40:16;8.70;99.90
2603;DHT22;1311;47.966;7.958;2022-11-20T09:42:45;8.70;99.90
2603;DHT22;1311;47.966;7.958;2022-11-20T09:45:15;8.60;99.90
2603;DHT22;1311;47.966;7.958;2022-11-20T09:47:46;8.70;99.90
2603;DHT22;1311;47.966;7.958;2022-11-20T09:50:23;8.70;99.90
2603;DHT22;1311;47.966;7.958;2022-11-20T09:52:54;8.70;99.90
2603;DHT22;1311;47.966;7.958;2022-11-20T09:55:23;8.80;99.90
2603;DHT22;1311;47.966;7.958;2022-11-20T10:09:31;17.90;99.90
2603;DHT22;1311;47.966;7.958;2022-11-20T10:12:09;18.30;99.90
2603;DHT22;1311;47.966;7.958;2022-11-20T10:14:47;18.40;99.90
2603;DHT22;1311;47.966;7.958;2022-11-20T10:17:31;19.40;99.90
2603;DHT22;1311;47.966;7.958;2022-11-20T10:20:16;19.30;99.90
2603;DHT22;1311;47.966;7.958;2022-11-20T11:02:58;21.60;99.90
2603;DHT22;1311;47.966;7.958;2022-11-20T11:05:34;21.60;99.90
2603;DHT22;1311;47.966;7.958;2022-11-20T11:08:03;20.60;99.90
2603;DHT22;1311;47.966;7.958;2022-11-20T11:10:39;20.20;99.90
2603;DHT22;1311;47.966;7.958;2022-11-20T11:20:32;665.70;1689.60
2603;DHT22;1311;47.966;7.958;2022-11-20T11:22:59;666.20;1356.80
2603;DHT22;1311;47.966;7.958;2022-11-20T11:26:20;691.40;1305.60
2603;DHT22;1311;47.966;7.958;2022-11-20T11:28:53;563.20;1228.80
2603;DHT22;1311;47.966;7.958;2022-11-20T11:31:25;512.50;1305.60
2603;DHT22;1311;47.966;7.958;2022-11-20T11:38:03;25.70;99.90
2603;DHT22;1311;47.966;7.958;2022-11-20T11:40:32;22.80;99.90
2603;DHT22;1311;47.966;7.958;2022-11-20T11:43:02;21.50;99.90
2603;DHT22;1311;47.966;7.958;2022-11-20T11:45:30;20.80;99.90
2603;DHT22;1311;47.966;7.958;2022-11-20T11:47:58;20.40;99.90
2603;DHT22;1311;47.966;7.958;2022-11-20T11:50:28;20.20;99.90
2603;DHT22;1311;47.966;7.958;2022-11-20T11:53:03;20.20;99.90
2603;DHT22;1311;47.966;7.958;2022-11-20T11:55:36;20.10;99.90
2603;DHT22;1311;47.966;7.958;2022-11-20T11:58:24;20.00;99.90
2603;DHT22;1311;47.966;7.958;2022-11-20T12:01:01;20.00;99.90
2603;DHT22;1311;47.966;7.958;2022-11-20T12:03:35;20.00;99.90
2603;DHT22;1311;47.966;7.958;2022-11-20T12:06:08;20.00;99.90
2603;DHT22;1311;47.966;7.958;2022-11-20T12:08:44;19.90;99.90
2603;DHT22;1311;47.966;7.958;2022-11-20T12:11:14;19.90;99.90
2603;DHT22;1311;47.966;7.958;2022-11-20T12:13:50;19.90;99.90
2603;DHT22;1311;47.966;7.958;2022-11-20T12:16:20;19.90;99.90
2603;DHT22;1311;47.966;7.958;2022-11-20T12:18:49;19.80;99.90
2603;DHT22;1311;47.966;7.958;2022-11-20T12:21:25;19.80;99.90
2603;DHT22;1311;47.966;7.958;2022-11-20T12:24:21;19.80;99.90
2603;DHT22;1311;47.966;7.958;2022-11-20T12:27:02;19.80;99.90
2603;DHT22;1311;47.966;7.958;2022-11-20T12:29:38;19.70;99.90
2603;DHT22;1311;47.966;7.958;2022-11-20T12:32:38;19.70;99.90
2603;DHT22;1311;47.966;7.958;2022-11-20T12:35:23;19.70;99.90
2603;DHT22;1311;47.966;7.958;2022-11-20T12:38:08;19.70;99.90
2603;DHT22;1311;47.966;7.958;2022-11-20T12:40:45;19.70;99.90
2603;DHT22;1311;47.966;7.958;2022-11-20T12:43:19;19.60;99.90
2603;DHT22;1311;47.966;7.958;2022-11-20T12:46:18;19.60;99.90
2603;DHT22;1311;47.966;7.958;2022-11-20T12:49:09;19.60;99.90
2603;DHT22;1311;47.966;7.958;2022-11-20T12:51:48;19.60;99.90
2603;DHT22;1311;47.966;7.958;2022-11-20T12:54:40;19.60;99.90
2603;DHT22;1311;47.966;7.958;2022-11-20T12:57:16;19.60;99.90
2603;DHT22;1311;47.966;7.958;2022-11-20T12:59:55;19.50;99.90
2603;DHT22;1311;47.966;7.958;2022-11-20T13:02:35;19.50;99.90
2603;DHT22;1311;47.966;7.958;2022-11-20T13:05:19;19.50;99.90
2603;DHT22;1311;47.966;7.958;2022-11-20T13:07:50;19.50;99.90
2603;DHT22;1311;47.966;7.958;2022-11-20T13:10:21;19.50;99.90
2603;DHT22;1311;47.966;7.958;2022-11-20T13:12:56;19.40;99.90
2603;DHT22;1311;47.966;7.958;2022-11-20T13:15:36;19.40;99.90
2603;DHT22;1311;47.966;7.958;2022-11-20T13:18:08;19.40;99.90
2603;DHT22;1311;47.966;7.958;2022-11-20T13:20:36;19.40;99.90
2603;DHT22;1311;47.966;7.958;2022-11-20T13:23:07;19.40;99.90
2603;DHT22;1311;47.966;7.958;2022-11-20T13:25:35;19.40;99.90
2603;DHT22;1311;47.966;7.958;2022-11-20T13:28:24;19.40;99.90
2603;DHT22;1311;47.966;7.958;2022-11-20T13:30:53;19.40;99.90
2603;DHT22;1311;47.966;7.958;2022-11-20T13:33:27;19.40;99.90
2603;DHT22;1311;47.966;7.958;2022-11-20T13:35:56;19.30;99.90
2603;DHT22;1311;47.966;7.958;2022-11-20T13:38:23;19.40;99.90
2603;DHT22;1311;47.966;7.958;2022-11-20T13:40:52;19.40;99.90
2603;DHT22;1311;47.966;7.958;2022-11-20T13:43:23;19.40;99.90
2603;DHT22;1311;47.966;7.958;2022-11-20T13:45:58;19.40;99.90
2603;DHT22;1311;47.966;7.958;2022-11-20T13:48:27;19.40;99.90
2603;DHT22;1311;47.966;7.958;2022-11-20T13:51:07;19.40;99.90
2603;DHT22;1311;47.966;7.958;2022-11-20T13:53:48;19.40;99.90
2603;DHT22;1311;47.966;7.958;2022-11-20T13:56:24;19.40;99.90
2603;DHT22;1311;47.966;7.958;2022-11-20T13:59:02;19.40;99.90
2603;DHT22;1311;47.966;7.958;2022-11-20T14:01:31;19.30;99.90
2603;DHT22;1311;47.966;7.958;2022-11-20T14:04:00;19.30;99.90
2603;DHT22;1311;47.966;7.958;2022-11-20T14:06:29;19.30;99.90
2603;DHT22;1311;47.966;7.958;2022-11-20T14:08:57;19.30;99.90
2603;DHT22;1311;47.966;7.958;2022-11-20T14:11:26;19.30;99.90
2603;DHT22;1311;47.966;7.958;2022-11-20T14:13:57;19.20;99.90
2603;DHT22;1311;47.966;7.958;2022-11-20T14:16:25;19.30;99.90
2603;DHT22;1311;47.966;7.958;2022-11-20T14:18:53;19.30;99.90
2603;DHT22;1311;47.966;7.958;2022-11-20T14:21:25;19.30;99.90
2603;DHT22;1311;47.966;7.958;2022-11-20T14:23:53;19.20;99.90
2603;DHT22;1311;47.966;7.958;2022-11-20T14:26:20;19.20;99.90
2603;DHT22;1311;47.966;7.958;2022-11-20T14:28:48;19.20;99.90
2603;DHT22;1311;47.966;7.958;2022-11-20T14:31:23;19.20;99.90
2603;DHT22;1311;47.966;7.958;2022-11-20T14:33:51;19.20;99.90
2603;DHT22;1311;47.966;7.958;2022-11-20T14:36:20;19.20;99.90
2603;DHT22;1311;47.966;7.958;2022-11-20T14:38:49;19.10;99.90
2603;DHT22;1311;47.966;7.958;2022-11-20T14:41:18;19.10;99.90
2603;DHT22;1311;47.966;7.958;2022-11-20T14:43:47;19.10;99.90
2603;DHT22;1311;47.966;7.958;2022-11-20T14:46:14;19.10;99.90
2603;DHT22;1311;47.966;7.958;2022-11-20T14:48:45;19.10;99.90
2603;DHT22;1311;47.966;7.958;2022-11-20T14:51:25;19.10;99.90
2603;DHT22;1311;47.966;7.958;2022-11-20T14:53:53;19.10;99.90
2603;DHT22;1311;47.966;7.958;2022-11-20T14:56:22;19.10;99.90
2603;DHT22;1311;47.966;7.958;2022-11-20T14:58:55;19.10;99.90
2603;DHT22;1311;47.966;7.958;2022-11-20T15:01:26;19.10;99.90
2603;DHT22;1311;47.966;7.958;2022-11-20T15:04:00;19.00;99.90
2603;DHT22;1311;47.966;7.958;2022-11-20T15:06:27;19.00;99.90
2603;DHT22;1311;47.966;7.958;2022-11-20T15:08:55;19.00;99.90
2603;DHT22;1311;47.966;7.958;2022-11-20T15:11:29;19.00;99.90
2603;DHT22;1311;47.966;7.958;2022-11-20T15:13:57;19.00;99.90
2603;DHT22;1311;47.966;7.958;2022-11-20T15:16:24;19.00;99.90
2603;DHT22;1311;47.966;7.958;2022-11-20T15:18:53;19.00;99.90
2603;DHT22;1311;47.966;7.958;2022-11-20T15:21:22;18.90;99.90
2603;DHT22;1311;47.966;7.958;2022-11-20T15:23:48;18.90;99.90
2603;DHT22;1311;47.966;7.958;2022-11-20T15:26:19;18.90;99.90
2603;DHT22;1311;47.966;7.958;2022-11-20T15:28:49;18.90;99.90
2603;DHT22;1311;47.966;7.958;2022-11-20T15:31:18;18.90;99.90
2603;DHT22;1311;47.966;7.958;2022-11-20T15:33:46;18.90;99.90
2603;DHT22;1311;47.966;7.958;2022-11-20T15:36:13;18.80;99.90
2603;DHT22;1311;47.966;7.958;2022-11-20T15:38:41;18.80;99.90
2603;DHT22;1311;47.966;7.958;2022-11-20T15:41:08;18.90;99.90
2603;DHT22;1311;47.966;7.958;2022-11-20T15:43:35;18.90;99.90
2603;DHT22;1311;47.966;7.958;2022-11-20T15:46:04;18.90;99.90
2603;DHT22;1311;47.966;7.958;2022-11-20T15:48:35;18.90;99.90
2603;DHT22;1311;47.966;7.958;2022-11-20T15:51:06;18.90;99.90
2603;DHT22;1311;47.966;7.958;2022-11-20T15:53:38;18.90;99.90
2603;DHT22;1311;47.966;7.958;2022-11-20T15:56:11;18.90;99.90
2603;DHT22;1311;47.966;7.958;2022-11-20T15:58:38;18.80;99.90
2603;DHT22;1311;47.966;7.958;2022-11-20T16:01:05;18.80;99.90
2603;DHT22;1311;47.966;7.958;2022-11-20T16:03:32;18.80;99.90
2603;DHT22;1311;47.966;7.958;2022-11-20T16:05:59;18.80;99.90
2603;DHT22;1311;47.966;7.958;2022-11-20T16:08:25;18.80;99.90
2603;DHT22;1311;47.966;7.958;2022-11-20T16:10:52;18.80;99.90
2603;DHT22;1311;47.966;7.958;2022-11-20T16:13:20;18.80;99.90
2603;DHT22;1311;47.966;7.958;2022-11-20T16:16:06;18.80;99.90
2603;DHT22;1311;47.966;7.958;2022-11-20T16:18:34;18.80;99.90
2603;DHT22;1311;47.966;7.958;2022-11-20T16:21:01;18.80;99.90
2603;DHT22;1311;47.966;7.958;2022-11-20T16:23:28;18.80;99.90
2603;DHT22;1311;47.966;7.958;2022-11-20T16:25:55;18.70;99.90
2603;DHT22;1311;47.966;7.958;2022-11-20T16:28:23;18.70;99.90
2603;DHT22;1311;47.966;7.958;2022-11-20T16:30:50;18.70;99.90
2603;DHT22;1311;47.966;7.958;2022-11-20T16:33:17;18.70;99.90
2603;DHT22;1311;47.966;7.958;2022-11-20T16:35:44;18.70;99.90
2603;DHT22;1311;47.966;7.958;2022-11-20T16:38:10;18.70;99.90
2603;DHT22;1311;47.966;7.958;2022-11-20T16:40:37;18.70;99.90
2603;DHT22;1311;47.966;7.958;2022-11-20T16:43:08;18.70;99.90
2603;DHT22;1311;47.966;7.958;2022-11-20T16:45:42;18.70;99.90
2603;DHT22;1311;47.966;7.958;2022-11-20T16:48:13;18.70;99.90
2603;DHT22;1311;47.966;7.958;2022-11-20T16:50:45;18.70;99.90
2603;DHT22;1311;47.966;7.958;2022-11-20T16:53:13;18.70;99.90
2603;DHT22;1311;47.966;7.958;2022-11-20T16:55:40;18.60;99.90
2603;DHT22;1311;47.966;7.958;2022-11-20T16:58:07;18.60;99.90
2603;DHT22;1311;47.966;7.958;2022-11-20T17:00:35;18.60;99.90
2603;DHT22;1311;47.966;7.958;2022-11-20T17:03:03;18.60;99.90
2603;DHT22;1311;47.966;7.958;2022-11-20T17:05:30;18.60;99.90
2603;DHT22;1311;47.966;7.958;2022-11-20T17:07:57;18.60;99.90
2603;DHT22;1311;47.966;7.958;2022-11-20T17:10:24;18.60;99.90
2603;DHT22;1311;47.966;7.958;2022-11-20T17:12:51;18.60;99.90
2603;DHT22;1311;47.966;7.958;2022-11-20T17:15:18;18.60;99.90
2603;DHT22;1311;47.966;7.958;2022-11-20T17:17:44;18.60;99.90
2603;DHT22;1311;47.966;7.958;2022-11-20T17:20:12;18.60;99.90
2603;DHT22;1311;47.966;7.958;2022-11-20T17:22:39;18.60;99.90
2603;DHT22;1311;47.966;7.958;2022-11-20T17:25:06;18.60;99.90
2603;DHT22;1311;47.966;7.958;2022-11-20T17:27:33;18.60;99.90
2603;DHT22;1311;47.966;7.958;2022-11-20T17:30:00;18.60;99.90
2603;DHT22;1311;47.966;7.958;2022-11-20T17:32:27;18.60;99.90